createdAt,value
2018-12-14T00:00:18.326Z,6.20
2018-12-14T00:02:45.784Z,7.57
2018-12-14T00:05:13.298Z,7.30
2018-12-14T00:07:40.745Z,7.43
2018-12-14T00:10:08.262Z,7.87
2018-12-14T00:12:35.708Z,7.93
2018-12-14T00:15:04.405Z,7.83
2018-12-14T00:17:31.875Z,8.17
2018-12-14T00:19:59.317Z,8.67
2018-12-14T00:22:26.750Z,11.00
2018-12-14T00:24:54.220Z,9.33
2018-12-14T00:27:21.996Z,8.60
2018-12-14T00:29:49.604Z,9.07
2018-12-14T00:32:17.118Z,10.97
2018-12-14T00:34:44.556Z,9.87
2018-12-14T00:37:12.026Z,8.80
2018-12-14T00:39:39.468Z,10.40
2018-12-14T00:42:06.947Z,9.87
2018-12-14T00:44:35.224Z,8.83
2018-12-14T00:47:02.701Z,9.03
2018-12-14T00:49:30.141Z,10.00
2018-12-14T00:51:57.610Z,10.17
2018-12-14T00:54:25.070Z,9.60
2018-12-14T00:56:52.629Z,12.07
2018-12-14T00:59:20.190Z,11.10
2018-12-14T01:01:47.633Z,10.70
2018-12-14T01:04:15.097Z,10.23
2018-12-14T01:06:42.725Z,11.40
2018-12-14T01:09:10.209Z,11.73
2018-12-14T01:11:37.780Z,12.10
2018-12-14T01:14:05.272Z,12.77
2018-12-14T01:16:32.800Z,10.97
2018-12-14T01:19:00.269Z,11.90
2018-12-14T01:21:27.727Z,11.87
2018-12-14T01:23:55.157Z,13.03
2018-12-14T01:26:22.617Z,13.33
2018-12-14T01:28:50.088Z,11.80
2018-12-14T01:31:17.546Z,12.60
2018-12-14T01:33:45.061Z,12.07
2018-12-14T01:36:12.494Z,13.97
2018-12-14T01:38:39.980Z,11.67
2018-12-14T01:41:07.532Z,12.50
2018-12-14T01:43:34.962Z,15.27
2018-12-14T01:46:02.426Z,11.30
2018-12-14T01:48:29.944Z,13.13
2018-12-14T01:50:57.393Z,14.43
2018-12-14T01:53:24.837Z,12.70
2018-12-14T01:55:52.309Z,13.43
2018-12-14T01:58:19.745Z,12.23
2018-12-14T02:00:47.180Z,11.43
2018-12-14T02:03:14.630Z,10.97
2018-12-14T02:05:42.066Z,16.33
2018-12-14T02:08:09.520Z,14.70
2018-12-14T02:10:37.621Z,16.90
2018-12-14T02:13:05.094Z,15.53
2018-12-14T02:15:32.516Z,16.30
2018-12-14T02:17:59.987Z,15.17
2018-12-14T02:20:27.437Z,14.77
2018-12-14T02:22:54.877Z,16.37
2018-12-14T02:25:22.324Z,16.47
2018-12-14T02:27:49.778Z,15.27
2018-12-14T02:30:41.004Z,15.47
2018-12-14T02:33:08.857Z,13.73
2018-12-14T02:35:36.411Z,14.60
2018-12-14T02:38:04.423Z,14.43
2018-12-14T02:40:31.934Z,14.47
2018-12-14T02:42:59.404Z,16.07
2018-12-14T02:45:27.061Z,15.37
2018-12-14T02:47:54.545Z,17.10
2018-12-14T02:50:21.997Z,15.37
2018-12-14T02:52:49.523Z,15.37
2018-12-14T02:55:17.013Z,15.20
2018-12-14T02:57:44.474Z,15.13
2018-12-14T03:00:11.958Z,13.67
2018-12-14T03:02:39.418Z,16.27
2018-12-14T03:05:06.977Z,16.70
2018-12-14T03:07:34.407Z,14.83
2018-12-14T03:10:02.060Z,14.97
2018-12-14T03:12:29.588Z,14.10
2018-12-14T03:14:57.050Z,15.33
2018-12-14T03:17:25.027Z,15.80
2018-12-14T03:19:52.523Z,15.37
2018-12-14T03:22:20.323Z,13.97
2018-12-14T03:24:47.786Z,15.57
2018-12-14T03:27:15.260Z,15.70
2018-12-14T03:29:42.923Z,16.13
2018-12-14T03:32:10.452Z,14.83
2018-12-14T03:34:37.978Z,17.43
2018-12-14T03:37:05.511Z,20.87
2018-12-14T03:39:32.971Z,17.53
2018-12-14T03:42:00.572Z,15.00
2018-12-14T03:44:28.036Z,13.67
2018-12-14T03:46:55.488Z,20.07
2018-12-14T03:49:22.955Z,16.70
2018-12-14T03:51:50.409Z,15.93
2018-12-14T03:54:17.891Z,15.03
2018-12-14T03:56:45.336Z,16.63
2018-12-14T03:59:12.806Z,15.73
2018-12-14T04:01:40.256Z,15.00
2018-12-14T04:04:07.719Z,16.57
2018-12-14T04:06:35.254Z,13.10
2018-12-14T04:09:02.854Z,11.43
2018-12-14T04:11:30.314Z,11.10
2018-12-14T04:13:57.771Z,11.30
2018-12-14T04:16:25.262Z,11.17
2018-12-14T04:18:52.719Z,12.83
2018-12-14T04:21:20.208Z,11.83
2018-12-14T04:23:47.641Z,9.53
2018-12-14T04:26:15.099Z,11.73
2018-12-14T04:28:42.563Z,10.03
2018-12-14T04:31:10.013Z,9.73
2018-12-14T04:33:37.467Z,11.67
2018-12-14T04:36:04.922Z,11.10
2018-12-14T04:38:32.381Z,9.90
2018-12-14T04:40:59.839Z,9.67
2018-12-14T04:43:27.294Z,10.60
2018-12-14T04:45:54.749Z,12.20
2018-12-14T04:48:22.214Z,11.53
2018-12-14T04:50:49.663Z,10.00
2018-12-14T04:53:17.135Z,12.30
2018-12-14T04:55:44.598Z,9.03
2018-12-14T04:58:12.086Z,11.13
2018-12-14T05:00:39.642Z,10.40
2018-12-14T05:03:07.108Z,7.93
2018-12-14T05:05:34.626Z,9.80
2018-12-14T05:08:02.095Z,10.57
2018-12-14T05:10:29.605Z,10.27
2018-12-14T05:12:57.200Z,9.53
2018-12-14T05:15:24.656Z,8.77
2018-12-14T05:17:52.122Z,10.40
2018-12-14T05:20:19.567Z,8.83
2018-12-14T05:22:47.019Z,9.47
2018-12-14T05:25:14.456Z,8.83
2018-12-14T05:27:41.926Z,10.93
2018-12-14T05:30:09.657Z,8.33
2018-12-14T05:32:37.175Z,8.43
2018-12-14T05:35:05.057Z,12.13
2018-12-14T05:37:32.495Z,10.87
2018-12-14T05:39:59.972Z,8.13
2018-12-14T05:42:27.401Z,10.23
2018-12-14T05:44:54.875Z,10.67
2018-12-14T05:47:22.394Z,8.90
2018-12-14T05:49:49.862Z,11.07
2018-12-14T05:52:17.328Z,9.77
2018-12-14T05:54:44.762Z,12.60
2018-12-14T05:57:12.218Z,10.70
2018-12-14T05:59:39.702Z,10.90
2018-12-14T06:02:07.138Z,10.63
2018-12-14T06:04:34.597Z,11.33
2018-12-14T06:07:02.054Z,12.63
2018-12-14T06:09:29.541Z,12.33
2018-12-14T06:11:56.994Z,13.70
2018-12-14T06:14:24.446Z,11.97
2018-12-14T06:16:51.907Z,14.97
2018-12-14T06:19:19.361Z,9.63
2018-12-14T06:21:46.825Z,11.80
2018-12-14T06:24:14.282Z,13.90
2018-12-14T06:26:42.247Z,10.83
2018-12-14T06:29:09.706Z,13.27
2018-12-14T06:31:37.242Z,12.80
2018-12-14T06:34:04.697Z,14.77
2018-12-14T06:36:32.189Z,15.27
2018-12-14T06:38:59.741Z,20.10
2018-12-14T06:41:27.201Z,14.80
2018-12-14T06:43:54.661Z,15.67
2018-12-14T06:46:22.139Z,15.43
2018-12-14T06:48:49.574Z,20.03
2018-12-14T06:51:17.038Z,20.13
2018-12-14T06:53:44.487Z,14.53
2018-12-14T06:56:11.949Z,17.70
2018-12-14T06:58:39.398Z,16.67
2018-12-14T07:01:06.871Z,14.50
2018-12-14T07:03:34.314Z,19.70
2018-12-14T07:06:01.823Z,17.80
2018-12-14T07:08:29.338Z,18.60
2018-12-14T07:10:56.802Z,20.03
2018-12-14T07:13:24.339Z,20.47
2018-12-14T07:15:51.781Z,17.40
2018-12-14T07:18:19.335Z,19.90
2018-12-14T07:20:47.026Z,14.93
2018-12-14T07:23:14.505Z,17.70
2018-12-14T07:25:42.159Z,20.90
2018-12-14T07:28:09.631Z,21.90
2018-12-14T07:30:37.100Z,18.87
2018-12-14T07:33:05.047Z,20.30
2018-12-14T07:35:32.510Z,23.37
2018-12-14T07:37:59.951Z,23.07
2018-12-14T07:40:27.419Z,21.37
2018-12-14T07:42:54.867Z,22.73
2018-12-14T07:45:22.402Z,24.43
2018-12-14T07:47:49.856Z,22.83
2018-12-14T07:50:17.303Z,21.63
2018-12-14T07:55:18.541Z,20.70
2018-12-14T07:57:45.973Z,22.03
2018-12-14T08:00:13.505Z,23.77
2018-12-14T08:02:40.962Z,22.93
2018-12-14T08:05:08.499Z,20.80
2018-12-14T08:07:35.991Z,23.23
2018-12-14T08:10:04.485Z,22.23
2018-12-14T08:12:32.083Z,21.00
2018-12-14T08:14:59.539Z,18.73
2018-12-14T08:17:27.223Z,23.00
2018-12-14T08:19:54.705Z,22.73
2018-12-14T08:22:22.458Z,25.03
2018-12-14T08:24:49.921Z,22.70
2018-12-14T08:27:17.393Z,22.43
2018-12-14T08:29:44.915Z,26.37
2018-12-14T08:32:12.362Z,20.47
2018-12-14T08:34:39.842Z,29.53
2018-12-14T08:37:07.310Z,22.77
2018-12-14T08:39:34.790Z,25.83
2018-12-14T08:42:02.242Z,22.00
2018-12-14T08:44:29.682Z,19.43
2018-12-14T08:46:57.154Z,20.40
2018-12-14T08:49:24.612Z,21.53
2018-12-14T08:51:52.067Z,21.57
2018-12-14T08:54:19.522Z,21.23
2018-12-14T08:56:47.122Z,20.80
2018-12-14T08:59:14.555Z,20.53
2018-12-14T09:01:42.159Z,19.23
2018-12-14T09:04:09.614Z,20.23
2018-12-14T09:06:37.094Z,17.60
2018-12-14T09:09:05.906Z,21.20
2018-12-14T09:11:33.369Z,18.43
2018-12-14T09:14:00.887Z,18.97
2018-12-14T09:16:28.457Z,19.73
2018-12-14T09:18:55.906Z,17.20
2018-12-14T09:21:23.374Z,19.93
2018-12-14T09:23:50.858Z,18.83
2018-12-14T09:26:18.412Z,17.37
2018-12-14T09:28:45.942Z,19.00
2018-12-14T09:31:13.399Z,16.13
2018-12-14T09:33:40.956Z,17.47
2018-12-14T09:36:08.479Z,19.33
2018-12-14T09:38:35.920Z,19.33
2018-12-14T09:41:03.387Z,16.30
2018-12-14T09:43:30.831Z,18.77
2018-12-14T09:45:58.729Z,20.20
2018-12-14T09:48:26.242Z,20.90
2018-12-14T09:50:53.759Z,16.57
2018-12-14T09:53:21.243Z,18.70
2018-12-14T09:55:48.687Z,15.03
2018-12-14T09:58:16.142Z,14.30
2018-12-14T10:00:43.618Z,13.80
2018-12-14T10:03:11.121Z,14.70
2018-12-14T10:05:38.610Z,13.60
2018-12-14T10:08:06.067Z,16.67
2018-12-14T10:10:33.546Z,11.80
2018-12-14T10:13:01.043Z,11.97
2018-12-14T10:15:28.642Z,14.77
2018-12-14T10:17:56.383Z,12.43
2018-12-14T10:20:23.826Z,14.40
2018-12-14T10:22:51.266Z,14.10
2018-12-14T10:25:18.752Z,12.40
2018-12-14T10:27:46.224Z,16.90
2018-12-14T10:30:13.691Z,12.93
2018-12-14T10:32:41.179Z,13.47
2018-12-14T10:35:09.855Z,13.33
2018-12-14T10:37:37.466Z,10.80
2018-12-14T10:40:10.726Z,11.00
2018-12-14T10:42:38.256Z,14.40
2018-12-14T10:45:06.934Z,10.13
2018-12-14T10:47:34.414Z,10.53
2018-12-14T10:50:01.859Z,9.03
2018-12-14T10:52:29.306Z,12.90
2018-12-14T10:54:56.836Z,10.13
2018-12-14T10:57:24.280Z,11.00
2018-12-14T10:59:51.750Z,9.73
2018-12-14T11:02:19.230Z,11.73
2018-12-14T11:04:46.712Z,12.33
2018-12-14T11:07:14.231Z,11.60
2018-12-14T11:09:41.720Z,11.13
2018-12-14T11:12:09.189Z,10.53
2018-12-14T11:14:36.686Z,13.73
2018-12-14T11:17:04.262Z,12.57
2018-12-14T11:19:31.702Z,12.10
2018-12-14T11:21:59.167Z,14.80
2018-12-14T11:24:26.609Z,13.20
2018-12-14T11:26:54.514Z,13.13
2018-12-14T11:29:22.057Z,12.03
2018-12-14T11:31:49.615Z,11.43
2018-12-14T11:34:17.114Z,12.97
2018-12-14T11:36:44.587Z,11.80
2018-12-14T11:39:12.041Z,11.83
2018-12-14T11:41:39.568Z,13.00
2018-12-14T11:44:07.016Z,11.93
2018-12-14T11:46:34.537Z,11.40
2018-12-14T11:49:01.980Z,13.67
2018-12-14T11:51:29.476Z,13.07
2018-12-14T11:53:57.019Z,11.73
2018-12-14T11:56:24.490Z,11.77
2018-12-14T11:58:51.926Z,12.63
2018-12-14T12:01:19.395Z,13.77
2018-12-14T12:03:46.856Z,12.50
2018-12-14T12:06:14.326Z,12.70
2018-12-14T12:08:41.775Z,13.13
2018-12-14T12:11:09.312Z,13.83
2018-12-14T12:13:36.745Z,13.10
2018-12-14T12:16:04.215Z,12.63
2018-12-14T12:18:31.670Z,16.10
2018-12-14T12:20:59.131Z,13.60
2018-12-14T12:23:26.595Z,12.57
2018-12-14T12:25:54.062Z,10.97
2018-12-14T12:28:21.508Z,12.07
2018-12-14T12:30:48.990Z,11.67
2018-12-14T12:33:16.459Z,14.13
2018-12-14T12:35:43.900Z,11.90
2018-12-14T12:38:11.396Z,12.23
2018-12-14T12:40:38.831Z,12.80
2018-12-14T12:43:06.338Z,14.80
2018-12-14T12:45:33.837Z,14.60
2018-12-14T12:48:01.337Z,14.07
2018-12-14T12:50:30.269Z,13.00
2018-12-14T12:52:58.166Z,12.30
2018-12-14T12:55:25.658Z,12.60
2018-12-14T12:57:53.102Z,11.93
2018-12-14T13:00:20.585Z,13.20
2018-12-14T13:02:48.046Z,18.73
2018-12-14T13:05:15.681Z,12.03
2018-12-14T13:07:43.150Z,13.07
2018-12-14T13:10:10.620Z,12.57
2018-12-14T13:12:38.081Z,11.33
2018-12-14T13:15:06.254Z,13.20
2018-12-14T13:17:33.732Z,15.17
2018-12-14T13:20:01.182Z,12.13
2018-12-14T13:22:28.639Z,15.27
2018-12-14T13:24:56.114Z,13.47
2018-12-14T13:27:23.587Z,12.57
2018-12-14T13:29:51.036Z,12.93
2018-12-14T13:32:18.532Z,14.50
2018-12-14T13:34:45.977Z,14.63
2018-12-14T13:37:13.484Z,15.07
2018-12-14T13:39:40.966Z,13.67
2018-12-14T13:42:08.450Z,13.70
2018-12-14T13:44:36.386Z,15.20
2018-12-14T13:47:03.863Z,12.77
2018-12-14T13:49:31.319Z,14.70
2018-12-14T13:51:58.766Z,14.00
2018-12-14T13:54:26.275Z,14.53
2018-12-14T13:56:54.186Z,14.83
2018-12-14T13:59:21.657Z,14.97
2018-12-14T14:01:49.128Z,17.40
2018-12-14T14:04:16.581Z,14.80
2018-12-14T14:06:44.061Z,18.53
2018-12-14T14:09:11.511Z,17.40
2018-12-14T14:11:39.017Z,13.47
2018-12-14T14:14:06.475Z,14.17
2018-12-14T14:16:34.055Z,15.67
2018-12-14T14:19:01.531Z,16.83
2018-12-14T14:21:29.667Z,14.80
2018-12-14T14:23:57.102Z,14.03
2018-12-14T14:26:24.555Z,15.20
2018-12-14T14:28:51.998Z,16.93
2018-12-14T14:31:19.470Z,17.53
2018-12-14T14:33:46.915Z,16.40
2018-12-14T14:36:14.384Z,18.10
2018-12-14T14:38:41.830Z,15.97
2018-12-14T14:41:09.321Z,15.90
2018-12-14T14:43:36.870Z,16.67
2018-12-14T14:46:04.335Z,15.40
2018-12-14T14:48:31.807Z,15.20
2018-12-14T14:50:59.278Z,17.97
2018-12-14T14:53:26.758Z,16.87
2018-12-14T14:55:54.207Z,18.13
2018-12-14T14:58:21.764Z,15.50
2018-12-14T15:00:49.234Z,17.33
2018-12-14T15:03:16.872Z,17.93
2018-12-14T15:05:44.350Z,17.87
2018-12-14T15:08:11.842Z,15.73
2018-12-14T15:10:39.310Z,17.90
2018-12-14T15:13:06.786Z,17.13
2018-12-14T15:15:34.238Z,21.60
2018-12-14T15:18:01.822Z,18.00
2018-12-14T15:20:29.259Z,19.40
2018-12-14T15:22:56.730Z,21.20
2018-12-14T15:25:24.198Z,21.10
2018-12-14T15:27:51.669Z,18.83
2018-12-14T15:30:19.135Z,18.53
2018-12-14T15:32:46.598Z,19.30
2018-12-14T15:35:14.143Z,20.13
2018-12-14T15:37:41.610Z,19.63
2018-12-14T15:40:09.291Z,19.73
2018-12-14T15:42:36.790Z,20.63
2018-12-14T15:45:05.186Z,19.10
2018-12-14T15:47:32.722Z,20.17
2018-12-14T15:50:00.168Z,17.97
2018-12-14T15:52:28.064Z,19.67
2018-12-14T15:54:55.583Z,19.53
2018-12-14T15:57:23.043Z,19.17
2018-12-14T15:59:50.575Z,20.80
2018-12-14T16:02:18.084Z,20.97
2018-12-14T16:04:45.629Z,20.50
2018-12-14T16:07:13.250Z,18.17
2018-12-14T16:09:40.694Z,20.20
2018-12-14T16:12:08.167Z,19.57
2018-12-14T16:14:35.612Z,19.50
2018-12-14T16:17:03.123Z,21.53
2018-12-14T16:19:30.598Z,21.97
2018-12-14T16:21:58.185Z,20.00
2018-12-14T16:24:25.791Z,20.37
2018-12-14T16:26:53.333Z,22.77
2018-12-14T16:29:20.767Z,23.07
2018-12-14T16:31:48.254Z,22.47
2018-12-14T16:34:15.690Z,21.63
2018-12-14T16:36:43.142Z,24.70
2018-12-14T16:39:10.619Z,27.57
2018-12-14T16:41:38.126Z,22.57
2018-12-14T16:44:05.654Z,25.17
2018-12-14T16:46:33.172Z,22.83
2018-12-14T16:49:00.701Z,22.57
2018-12-14T16:51:28.175Z,23.47
2018-12-14T16:54:01.600Z,25.60
2018-12-14T16:56:29.098Z,23.90
2018-12-14T16:58:56.563Z,27.80
2018-12-14T17:01:24.098Z,27.83
2018-12-14T17:03:51.560Z,26.53
2018-12-14T17:06:19.051Z,26.33
2018-12-14T17:08:46.548Z,25.53
2018-12-14T17:11:13.995Z,26.30
2018-12-14T17:13:41.523Z,24.70
2018-12-14T17:16:08.994Z,27.33
2018-12-14T17:18:36.433Z,27.60
2018-12-14T17:21:03.914Z,24.53
2018-12-14T17:23:31.374Z,28.43
2018-12-14T17:25:58.934Z,27.50
2018-12-14T17:28:26.411Z,27.50
2018-12-14T17:30:53.923Z,26.10
2018-12-14T17:33:21.392Z,25.40
2018-12-14T17:35:48.865Z,26.33
2018-12-14T17:38:16.333Z,27.23
2018-12-14T17:40:43.821Z,25.40
2018-12-14T17:43:11.255Z,27.60
2018-12-14T17:45:39.918Z,24.63
2018-12-14T17:48:07.786Z,28.27
2018-12-14T17:50:35.246Z,27.77
2018-12-14T17:53:02.711Z,27.40
2018-12-14T17:55:30.172Z,30.20
2018-12-14T17:57:57.614Z,29.03
2018-12-14T18:00:25.087Z,28.47
2018-12-14T18:02:52.602Z,32.70
2018-12-14T18:05:20.075Z,34.23
2018-12-14T18:07:47.523Z,30.67
2018-12-14T18:10:15.059Z,30.50
2018-12-14T18:12:42.502Z,30.67
2018-12-14T18:15:10.030Z,33.23
2018-12-14T18:17:37.480Z,32.63
2018-12-14T18:20:06.073Z,37.23
2018-12-14T18:22:33.539Z,37.73
2018-12-14T18:25:01.394Z,34.73
2018-12-14T18:27:28.919Z,34.97
2018-12-14T18:29:56.874Z,36.17
2018-12-14T18:32:24.338Z,37.93
2018-12-14T18:34:51.811Z,41.50
2018-12-14T18:37:19.263Z,39.63
2018-12-14T18:39:46.747Z,41.70
2018-12-14T18:42:14.198Z,44.17
2018-12-14T18:44:41.790Z,42.90
2018-12-14T18:47:09.291Z,43.93
2018-12-14T18:49:36.787Z,40.27
2018-12-14T18:52:04.362Z,41.57
2018-12-14T18:54:31.874Z,43.87
2018-12-14T18:56:59.341Z,47.40
2018-12-14T18:59:27.082Z,43.40
2018-12-14T19:01:54.567Z,46.20
2018-12-14T19:04:22.015Z,45.97
2018-12-14T19:06:49.594Z,54.43
2018-12-14T19:09:17.100Z,50.47
2018-12-14T19:11:44.542Z,50.27
2018-12-14T19:14:12.016Z,46.37
2018-12-14T19:16:39.482Z,48.60
2018-12-14T19:19:06.941Z,45.93
2018-12-14T19:21:34.422Z,42.40
2018-12-14T19:24:01.866Z,43.23
2018-12-14T19:26:29.372Z,46.03
2018-12-14T19:28:56.927Z,47.03
2018-12-14T19:31:24.379Z,45.17
2018-12-14T19:33:51.920Z,42.10
2018-12-14T19:36:19.385Z,43.97
2018-12-14T19:38:46.858Z,43.00
2018-12-14T19:41:14.329Z,43.07
2018-12-14T19:43:41.799Z,44.00
2018-12-14T19:46:09.304Z,40.80
2018-12-14T19:48:36.746Z,42.07
2018-12-14T19:51:04.235Z,44.60
2018-12-14T19:53:31.738Z,43.13
2018-12-14T19:55:59.243Z,39.33
2018-12-14T19:58:26.776Z,43.47
2018-12-14T20:00:54.229Z,37.77
2018-12-14T20:03:21.698Z,36.53
2018-12-14T20:05:49.147Z,41.70
2018-12-14T20:08:16.675Z,42.77
2018-12-14T20:10:44.253Z,36.73
2018-12-14T20:13:11.719Z,41.47
2018-12-14T20:15:39.454Z,36.70
2018-12-14T20:18:06.953Z,37.30
2018-12-14T20:20:34.427Z,37.43
2018-12-14T20:23:01.894Z,41.27
2018-12-14T20:25:29.414Z,38.27
2018-12-14T20:27:56.871Z,38.63
2018-12-14T20:30:24.335Z,37.20
2018-12-14T20:32:51.814Z,36.70
2018-12-14T20:35:19.669Z,36.17
2018-12-14T20:37:47.588Z,35.13
2018-12-14T20:40:15.041Z,34.40
2018-12-14T20:42:42.518Z,35.70
2018-12-14T20:45:10.026Z,37.30
2018-12-14T20:47:37.501Z,35.73
2018-12-14T20:50:05.315Z,34.53
2018-12-14T20:52:32.770Z,38.90
2018-12-14T20:55:00.205Z,37.73
2018-12-14T20:57:27.675Z,34.17
2018-12-14T20:59:55.168Z,37.10
2018-12-14T21:02:22.738Z,37.97
2018-12-14T21:04:50.248Z,35.27
2018-12-14T21:07:17.703Z,36.13
2018-12-14T21:09:45.162Z,36.50
2018-12-14T21:12:12.607Z,35.57
2018-12-14T21:14:40.116Z,35.10
2018-12-14T21:17:07.626Z,33.20
2018-12-14T21:19:35.079Z,31.20
2018-12-14T21:22:02.552Z,33.43
2018-12-14T21:24:32.950Z,31.90
2018-12-14T21:27:00.410Z,32.47
2018-12-14T21:29:27.864Z,32.43
2018-12-14T21:31:55.390Z,33.90
2018-12-14T21:34:22.851Z,31.50
2018-12-14T21:36:50.338Z,28.67
2018-12-14T21:39:17.786Z,31.30
2018-12-14T21:41:45.262Z,30.13
2018-12-14T21:44:12.711Z,30.80
2018-12-14T21:46:40.166Z,28.57
2018-12-14T21:49:07.694Z,29.57
2018-12-14T21:51:35.225Z,30.67
2018-12-14T21:54:02.734Z,29.20
2018-12-14T21:56:30.306Z,31.13
2018-12-14T21:58:57.762Z,28.83
2018-12-14T22:01:25.286Z,29.77
2018-12-14T22:03:52.755Z,30.83
2018-12-14T22:06:20.235Z,29.13
2018-12-14T22:08:47.683Z,27.67
2018-12-14T22:11:15.219Z,28.60
2018-12-14T22:13:42.680Z,28.60
2018-12-14T22:16:10.149Z,26.77
2018-12-14T22:18:37.633Z,28.57
2018-12-14T22:21:05.186Z,28.47
2018-12-14T22:23:32.670Z,28.13
2018-12-14T22:26:00.116Z,28.47
2018-12-14T22:28:27.587Z,27.57
2018-12-14T22:30:55.070Z,25.80
2018-12-14T22:33:22.517Z,26.43
2018-12-14T22:35:49.998Z,26.60
2018-12-14T22:38:17.907Z,26.73
2018-12-14T22:40:45.397Z,23.10
2018-12-14T22:43:12.854Z,26.87
2018-12-14T22:45:40.319Z,24.53
2018-12-14T22:48:07.749Z,26.83
2018-12-14T22:50:35.329Z,22.93
2018-12-14T22:53:02.762Z,23.17
2018-12-14T22:55:30.215Z,23.77
2018-12-14T22:57:57.738Z,24.37
2018-12-14T23:00:25.316Z,22.17
2018-12-14T23:02:52.786Z,23.67
2018-12-14T23:05:20.254Z,23.00
2018-12-14T23:07:47.707Z,23.53
2018-12-14T23:10:15.248Z,22.47
2018-12-14T23:12:42.702Z,25.33
2018-12-14T23:15:10.146Z,26.97
2018-12-14T23:17:37.628Z,26.80
2018-12-14T23:20:05.398Z,24.90
2018-12-14T23:22:32.874Z,23.57
2018-12-14T23:25:00.412Z,26.27
2018-12-14T23:27:27.859Z,22.30
2018-12-14T23:29:55.381Z,22.63
2018-12-14T23:32:23.045Z,24.20
2018-12-14T23:34:50.591Z,24.13
2018-12-14T23:37:18.248Z,24.40
2018-12-14T23:39:45.775Z,22.20
2018-12-14T23:42:13.250Z,20.73
2018-12-14T23:44:40.692Z,25.93
2018-12-14T23:47:08.153Z,28.30
2018-12-14T23:49:35.716Z,21.30
2018-12-14T23:52:03.158Z,26.70
2018-12-14T23:54:30.736Z,26.00
2018-12-14T23:56:58.175Z,26.17
2018-12-14T23:59:25.647Z,26.13
